sensor_id;sensor_type;location;lat;lon;timestamp;pressure;altitude;pressure_sealevel;temperature;humidity
13800;BME280;6971;50.028;9.258;2024-03-17T00:04:20;100207.03;;;1.77;100.00
13800;BME280;6971;50.028;9.258;2024-03-17T00:09:20;100205.34;;;1.66;100.00
13800;BME280;6971;50.028;9.258;2024-03-17T00:14:21;100206.22;;;1.62;100.00
13800;BME280;6971;50.028;9.258;2024-03-17T00:19:23;100204.50;;;1.61;100.00
13800;BME280;6971;50.028;9.258;2024-03-17T00:24:23;100201.03;;;1.62;100.00
13800;BME280;6971;50.028;9.258;2024-03-17T00:29:24;100201.13;;;1.47;100.00
13800;BME280;6971;50.028;9.258;2024-03-17T00:34:24;100192.50;;;1.32;100.00
13800;BME280;6971;50.028;9.258;2024-03-17T00:39:25;100186.41;;;1.39;100.00
13800;BME280;6971;50.028;9.258;2024-03-17T00:44:25;100182.13;;;1.23;100.00
13800;BME280;6971;50.028;9.258;2024-03-17T00:49:26;100180.44;;;1.09;100.00
13800;BME280;6971;50.028;9.258;2024-03-17T00:54:26;100177.03;;;0.98;100.00
13800;BME280;6971;50.028;9.258;2024-03-17T00:59:27;100176.16;;;0.93;100.00
13800;BME280;6971;50.028;9.258;2024-03-17T01:04:27;100173.59;;;0.83;100.00
13800;BME280;6971;50.028;9.258;2024-03-17T01:09:28;100164.97;;;0.72;100.00
13800;BME280;6971;50.028;9.258;2024-03-17T01:14:29;100164.13;;;0.67;100.00
13800;BME280;6971;50.028;9.258;2024-03-17T01:19:30;100159.78;;;0.59;100.00
13800;BME280;6971;50.028;9.258;2024-03-17T01:24:31;100145.09;;;0.57;100.00
13800;BME280;6971;50.028;9.258;2024-03-17T01:29:34;100152.88;;;0.46;100.00
13800;BME280;6971;50.028;9.258;2024-03-17T01:34:35;100147.69;;;0.44;100.00
13800;BME280;6971;50.028;9.258;2024-03-17T01:39:35;100141.66;;;0.37;100.00
13800;BME280;6971;50.028;9.258;2024-03-17T01:44:35;100137.31;;;0.29;100.00
13800;BME280;6971;50.028;9.258;2024-03-17T01:49:36;100130.41;;;0.17;100.00
13800;BME280;6971;50.028;9.258;2024-03-17T01:54:37;100133.00;;;0.18;100.00
13800;BME280;6971;50.028;9.258;2024-03-17T01:59:39;100126.13;;;0.09;100.00
13800;BME280;6971;50.028;9.258;2024-03-17T02:04:40;100125.25;;;0.01;100.00
13800;BME280;6971;50.028;9.258;2024-03-17T02:09:41;100121.75;;;-0.03;100.00
13800;BME280;6971;50.028;9.258;2024-03-17T02:14:43;100121.78;;;-0.09;100.00
13800;BME280;6971;50.028;9.258;2024-03-17T02:19:43;100115.72;;;-0.22;100.00
13800;BME280;6971;50.028;9.258;2024-03-17T02:24:44;100114.00;;;-0.26;100.00
13800;BME280;6971;50.028;9.258;2024-03-17T02:29:44;100112.25;;;-0.32;100.00
13800;BME280;6971;50.028;9.258;2024-03-17T02:34:45;100108.78;;;-0.38;100.00
13800;BME280;6971;50.028;9.258;2024-03-17T02:39:45;100106.16;;;-0.45;100.00
13800;BME280;6971;50.028;9.258;2024-03-17T02:44:46;100094.94;;;-0.55;100.00
13800;BME280;6971;50.028;9.258;2024-03-17T02:49:46;100100.09;;;-0.56;100.00
13800;BME280;6971;50.028;9.258;2024-03-17T02:54:50;100100.94;;;-0.62;100.00
13800;BME280;6971;50.028;9.258;2024-03-17T02:59:50;100095.75;;;-0.70;100.00
13800;BME280;6971;50.028;9.258;2024-03-17T03:04:51;100099.19;;;-0.77;100.00
13800;BME280;6971;50.028;9.258;2024-03-17T03:09:52;100093.97;;;-0.86;100.00
13800;BME280;6971;50.028;9.258;2024-03-17T03:14:52;100101.69;;;-0.96;100.00
13800;BME280;6971;50.028;9.258;2024-03-17T03:19:53;100102.56;;;-0.97;100.00
13800;BME280;6971;50.028;9.258;2024-03-17T03:24:55;100104.28;;;-1.02;100.00
13800;BME280;6971;50.028;9.258;2024-03-17T03:29:55;100107.66;;;-1.12;100.00
13800;BME280;6971;50.028;9.258;2024-03-17T03:34:56;100100.75;;;-1.15;100.00
13800;BME280;6971;50.028;9.258;2024-03-17T03:39:56;100103.31;;;-1.23;100.00
13800;BME280;6971;50.028;9.258;2024-03-17T03:44:57;100105.88;;;-1.23;100.00
13800;BME280;6971;50.028;9.258;2024-03-17T03:49:58;100114.50;;;-1.27;100.00
13800;BME280;6971;50.028;9.258;2024-03-17T03:54:58;100108.41;;;-1.34;100.00
13800;BME280;6971;50.028;9.258;2024-03-17T04:00:03;100115.28;;;-1.34;100.00
13800;BME280;6971;50.028;9.258;2024-03-17T04:05:13;100117.84;;;-1.40;100.00
13800;BME280;6971;50.028;9.258;2024-03-17T04:10:14;100130.75;;;-1.45;100.00
13800;BME280;6971;50.028;9.258;2024-03-17T04:15:15;100126.41;;;-1.49;100.00
13800;BME280;6971;50.028;9.258;2024-03-17T04:20:15;100129.00;;;-1.48;100.00
13800;BME280;6971;50.028;9.258;2024-03-17T04:25:16;100138.44;;;-1.56;100.00
13800;BME280;6971;50.028;9.258;2024-03-17T04:30:17;100136.81;;;-1.40;100.00
13800;BME280;6971;50.028;9.258;2024-03-17T04:35:17;100136.75;;;-1.51;100.00
13800;BME280;6971;50.028;9.258;2024-03-17T04:40:18;100140.25;;;-1.42;100.00
13800;BME280;6971;50.028;9.258;2024-03-17T04:45:19;100141.16;;;-1.39;100.00
13800;BME280;6971;50.028;9.258;2024-03-17T04:50:19;100135.09;;;-1.39;100.00
13800;BME280;6971;50.028;9.258;2024-03-17T04:55:21;100148.97;;;-1.28;100.00
13800;BME280;6971;50.028;9.258;2024-03-17T05:00:21;100136.91;;;-1.26;100.00
13800;BME280;6971;50.028;9.258;2024-03-17T05:05:22;100146.44;;;-1.20;100.00
13800;BME280;6971;50.028;9.258;2024-03-17T05:10:23;100141.28;;;-1.12;100.00
13800;BME280;6971;50.028;9.258;2024-03-17T05:15:24;100132.69;;;-1.10;100.00
13800;BME280;6971;50.028;9.258;2024-03-17T05:20:25;100122.28;;;-1.19;100.00
13800;BME280;6971;50.028;9.258;2024-03-17T05:25:25;100124.03;;;-1.15;100.00
13800;BME280;6971;50.028;9.258;2024-03-17T05:30:25;100120.59;;;-1.12;100.00
13800;BME280;6971;50.028;9.258;2024-03-17T05:35:27;100124.94;;;-1.08;100.00
13800;BME280;6971;50.028;9.258;2024-03-17T05:40:27;100122.38;;;-1.03;100.00
13800;BME280;6971;50.028;9.258;2024-03-17T05:45:28;100125.00;;;-0.96;100.00
13800;BME280;6971;50.028;9.258;2024-03-17T05:50:28;100124.22;;;-0.79;100.00
13800;BME280;6971;50.028;9.258;2024-03-17T05:55:29;100114.72;;;-0.74;100.00
13800;BME280;6971;50.028;9.258;2024-03-17T06:00:30;100119.03;;;-0.71;100.00
13800;BME280;6971;50.028;9.258;2024-03-17T06:05:34;100118.22;;;-0.59;100.00
13800;BME280;6971;50.028;9.258;2024-03-17T06:10:36;100119.09;;;-0.60;100.00
13800;BME280;6971;50.028;9.258;2024-03-17T06:15:37;100116.50;;;-0.54;100.00
13800;BME280;6971;50.028;9.258;2024-03-17T06:20:42;100116.53;;;-0.48;100.00
13800;BME280;6971;50.028;9.258;2024-03-17T06:25:47;100113.09;;;-0.44;100.00
13800;BME280;6971;50.028;9.258;2024-03-17T06:30:55;100113.09;;;-0.44;100.00
13800;BME280;6971;50.028;9.258;2024-03-17T06:35:57;100105.34;;;-0.25;100.00
13800;BME280;6971;50.028;9.258;2024-03-17T06:40:57;100110.53;;;-0.09;100.00
13800;BME280;6971;50.028;9.258;2024-03-17T06:45:59;100107.97;;;-0.03;100.00
13800;BME280;6971;50.028;9.258;2024-03-17T06:51:00;100104.50;;;0.17;100.00
13800;BME280;6971;50.028;9.258;2024-03-17T06:56:00;100097.59;;;0.17;100.00
13800;BME280;6971;50.028;9.258;2024-03-17T07:01:02;100110.56;;;0.31;100.00
13800;BME280;6971;50.028;9.258;2024-03-17T07:06:02;100098.34;;;0.80;100.00
13800;BME280;6971;50.028;9.258;2024-03-17T07:11:05;100105.94;;;1.24;100.00
13800;BME280;6971;50.028;9.258;2024-03-17T07:16:06;100104.94;;;1.56;100.00
13800;BME280;6971;50.028;9.258;2024-03-17T07:21:07;100107.50;;;1.59;100.00
13800;BME280;6971;50.028;9.258;2024-03-17T07:26:10;100116.75;;;2.01;100.00
13800;BME280;6971;50.028;9.258;2024-03-17T07:31:10;100106.19;;;2.21;100.00
13800;BME280;6971;50.028;9.258;2024-03-17T07:36:11;100106.03;;;2.37;100.00
13800;BME280;6971;50.028;9.258;2024-03-17T07:41:12;100101.19;;;2.87;100.00
13800;BME280;6971;50.028;9.258;2024-03-17T07:46:12;100105.56;;;2.85;100.00
13800;BME280;6971;50.028;9.258;2024-03-17T07:51:14;100109.66;;;3.05;100.00
13800;BME280;6971;50.028;9.258;2024-03-17T07:56:17;100108.63;;;3.21;100.00
13800;BME280;6971;50.028;9.258;2024-03-17T08:01:17;100112.84;;;3.91;100.00
13800;BME280;6971;50.028;9.258;2024-03-17T08:06:18;100124.84;;;4.54;100.00
13800;BME280;6971;50.028;9.258;2024-03-17T08:11:18;100108.94;;;5.14;100.00
13800;BME280;6971;50.028;9.258;2024-03-17T08:16:19;100112.44;;;5.55;100.00
13800;BME280;6971;50.028;9.258;2024-03-17T08:21:19;100103.44;;;5.67;100.00
13800;BME280;6971;50.028;9.258;2024-03-17T08:26:19;100105.31;;;6.36;100.00
13800;BME280;6971;50.028;9.258;2024-03-17T08:31:20;100098.00;;;7.71;100.00
13800;BME280;6971;50.028;9.258;2024-03-17T08:36:20;100089.88;;;9.10;100.00
13800;BME280;6971;50.028;9.258;2024-03-17T08:41:21;100095.50;;;10.35;100.00
13800;BME280;6971;50.028;9.258;2024-03-17T08:46:21;100089.94;;;10.20;100.00
13800;BME280;6971;50.028;9.258;2024-03-17T08:51:22;100099.75;;;11.57;98.91
13800;BME280;6971;50.028;9.258;2024-03-17T08:56:22;100101.78;;;12.44;87.42
13800;BME280;6971;50.028;9.258;2024-03-17T09:01:23;100102.41;;;12.49;83.17
13800;BME280;6971;50.028;9.258;2024-03-17T09:06:24;100101.84;;;10.72;82.46
13800;BME280;6971;50.028;9.258;2024-03-17T09:11:27;100098.22;;;11.34;79.93
13800;BME280;6971;50.028;9.258;2024-03-17T09:16:28;100091.09;;;13.47;74.11
13800;BME280;6971;50.028;9.258;2024-03-17T09:21:30;100096.50;;;11.89;73.62
13800;BME280;6971;50.028;9.258;2024-03-17T09:26:31;100108.00;;;12.60;73.49
13800;BME280;6971;50.028;9.258;2024-03-17T09:31:31;100088.28;;;12.84;69.62
13800;BME280;6971;50.028;9.258;2024-03-17T09:36:34;100088.31;;;13.50;65.40
13800;BME280;6971;50.028;9.258;2024-03-17T09:41:37;100079.84;;;13.75;66.36
13800;BME280;6971;50.028;9.258;2024-03-17T09:46:38;100088.41;;;12.64;68.75
13800;BME280;6971;50.028;9.258;2024-03-17T09:51:39;100088.88;;;12.20;66.82
13800;BME280;6971;50.028;9.258;2024-03-17T09:56:40;100086.94;;;12.06;68.27
13800;BME280;6971;50.028;9.258;2024-03-17T10:01:40;100076.09;;;12.97;66.05
13800;BME280;6971;50.028;9.258;2024-03-17T10:06:46;100073.47;;;10.98;73.28
13800;BME280;6971;50.028;9.258;2024-03-17T10:11:51;100073.16;;;13.36;67.66
13800;BME280;6971;50.028;9.258;2024-03-17T10:16:58;100068.91;;;12.83;69.63
13800;BME280;6971;50.028;9.258;2024-03-17T10:22:00;100055.91;;;13.77;64.88
13800;BME280;6971;50.028;9.258;2024-03-17T10:27:01;100045.69;;;14.61;62.88
13800;BME280;6971;50.028;9.258;2024-03-17T10:32:13;100043.59;;;14.52;63.69
13800;BME280;6971;50.028;9.258;2024-03-17T10:37:17;100046.22;;;13.92;63.80
13800;BME280;6971;50.028;9.258;2024-03-17T10:42:25;100050.78;;;13.74;62.15
13800;BME280;6971;50.028;9.258;2024-03-17T10:47:28;100038.03;;;13.00;66.26
13800;BME280;6971;50.028;9.258;2024-03-17T10:52:29;100039.25;;;11.35;69.50
13800;BME280;6971;50.028;9.258;2024-03-17T11:02:36;100039.41;;;12.57;67.85
13800;BME280;6971;50.028;9.258;2024-03-17T11:07:37;100034.09;;;11.51;69.57
13800;BME280;6971;50.028;9.258;2024-03-17T11:12:46;100022.59;;;12.24;68.61
13800;BME280;6971;50.028;9.258;2024-03-17T11:17:49;100019.69;;;12.47;69.36
13800;BME280;6971;50.028;9.258;2024-03-17T11:22:55;100032.91;;;12.81;68.23
13800;BME280;6971;50.028;9.258;2024-03-17T11:27:57;100036.34;;;12.65;67.94
13800;BME280;6971;50.028;9.258;2024-03-17T11:32:57;100037.22;;;11.40;68.58
13800;BME280;6971;50.028;9.258;2024-03-17T11:37:57;100039.75;;;11.98;72.54
13800;BME280;6971;50.028;9.258;2024-03-17T11:43:03;100027.78;;;12.44;71.37
13800;BME280;6971;50.028;9.258;2024-03-17T11:48:12;100030.66;;;13.55;68.08
13800;BME280;6971;50.028;9.258;2024-03-17T11:53:15;100033.69;;;12.99;70.96
13800;BME280;6971;50.028;9.258;2024-03-17T11:58:15;100023.56;;;12.04;70.38
13800;BME280;6971;50.028;9.258;2024-03-17T12:03:17;100020.13;;;12.55;71.82
13800;BME280;6971;50.028;9.258;2024-03-17T12:08:20;100015.75;;;12.20;70.92
13800;BME280;6971;50.028;9.258;2024-03-17T12:13:20;100026.34;;;12.54;70.62
13800;BME280;6971;50.028;9.258;2024-03-17T12:18:21;100019.72;;;11.94;70.44
13800;BME280;6971;50.028;9.258;2024-03-17T12:23:21;100022.53;;;12.08;71.71
13800;BME280;6971;50.028;9.258;2024-03-17T12:28:23;100015.41;;;11.91;71.61
13800;BME280;6971;50.028;9.258;2024-03-17T12:33:23;100018.13;;;11.72;74.46
13800;BME280;6971;50.028;9.258;2024-03-17T12:38:24;100002.75;;;11.06;72.32
13800;BME280;6971;50.028;9.258;2024-03-17T12:43:24;100003.03;;;12.78;69.48
13800;BME280;6971;50.028;9.258;2024-03-17T12:48:26;100004.19;;;13.23;68.95
13800;BME280;6971;50.028;9.258;2024-03-17T12:53:26;100007.34;;;12.63;70.04
13800;BME280;6971;50.028;9.258;2024-03-17T12:58:27;99986.03;;;12.66;72.33
13800;BME280;6971;50.028;9.258;2024-03-17T13:03:46;99983.00;;;13.55;67.99
13800;BME280;6971;50.028;9.258;2024-03-17T13:08:46;99970.19;;;12.99;69.46
13800;BME280;6971;50.028;9.258;2024-03-17T13:13:46;99973.50;;;13.51;69.48
13800;BME280;6971;50.028;9.258;2024-03-17T13:18:47;99976.31;;;13.48;69.87
13800;BME280;6971;50.028;9.258;2024-03-17T13:23:47;99960.63;;;13.12;68.32
13800;BME280;6971;50.028;9.258;2024-03-17T13:28:50;99947.97;;;13.17;70.02
13800;BME280;6971;50.028;9.258;2024-03-17T13:33:50;99942.41;;;12.91;70.83
13800;BME280;6971;50.028;9.258;2024-03-17T13:38:52;99932.84;;;12.89;68.30
13800;BME280;6971;50.028;9.258;2024-03-17T13:43:53;99921.34;;;12.40;70.85
13800;BME280;6971;50.028;9.258;2024-03-17T13:49:00;99909.34;;;12.99;71.07
13800;BME280;6971;50.028;9.258;2024-03-17T13:54:07;99901.13;;;13.19;71.25
13800;BME280;6971;50.028;9.258;2024-03-17T13:59:08;99901.19;;;12.87;70.55
13800;BME280;6971;50.028;9.258;2024-03-17T14:04:13;99897.31;;;12.77;71.54
13800;BME280;6971;50.028;9.258;2024-03-17T14:09:16;99889.06;;;12.67;70.80
13800;BME280;6971;50.028;9.258;2024-03-17T14:14:19;99884.03;;;12.46;70.30
13800;BME280;6971;50.028;9.258;2024-03-17T14:19:19;99872.94;;;12.72;70.86
13800;BME280;6971;50.028;9.258;2024-03-17T14:24:19;99868.50;;;12.56;71.79
13800;BME280;6971;50.028;9.258;2024-03-17T14:29:20;99855.97;;;12.44;72.09
13800;BME280;6971;50.028;9.258;2024-03-17T14:34:20;99851.94;;;12.36;70.94
13800;BME280;6971;50.028;9.258;2024-03-17T14:39:21;99853.91;;;12.17;73.40
13800;BME280;6971;50.028;9.258;2024-03-17T14:44:22;99857.56;;;12.30;71.69
13800;BME280;6971;50.028;9.258;2024-03-17T14:49:22;99851.06;;;12.20;71.05
13800;BME280;6971;50.028;9.258;2024-03-17T14:54:23;99840.59;;;12.18;73.74
13800;BME280;6971;50.028;9.258;2024-03-17T14:59:23;99839.94;;;12.47;71.89
13800;BME280;6971;50.028;9.258;2024-03-17T15:04:24;99836.81;;;11.88;72.03
13800;BME280;6971;50.028;9.258;2024-03-17T15:09:27;99838.56;;;11.90;71.47
13800;BME280;6971;50.028;9.258;2024-03-17T15:14:27;99841.91;;;11.75;72.27
13800;BME280;6971;50.028;9.258;2024-03-17T15:19:28;99834.09;;;11.90;74.51
13800;BME280;6971;50.028;9.258;2024-03-17T15:24:28;99833.81;;;11.96;73.32
13800;BME280;6971;50.028;9.258;2024-03-17T15:29:29;99828.03;;;11.72;74.14
13800;BME280;6971;50.028;9.258;2024-03-17T15:34:30;99824.84;;;11.65;72.86
13800;BME280;6971;50.028;9.258;2024-03-17T15:39:33;99832.75;;;11.83;74.39
13800;BME280;6971;50.028;9.258;2024-03-17T15:44:33;99825.41;;;11.72;74.74
13800;BME280;6971;50.028;9.258;2024-03-17T15:49:34;99823.50;;;11.74;73.97
13800;BME280;6971;50.028;9.258;2024-03-17T15:54:34;99817.19;;;11.43;76.04
13800;BME280;6971;50.028;9.258;2024-03-17T15:59:35;99819.69;;;11.10;74.72
13800;BME280;6971;50.028;9.258;2024-03-17T16:04:35;99812.53;;;11.13;75.86
13800;BME280;6971;50.028;9.258;2024-03-17T16:09:36;99807.50;;;11.43;75.10
13800;BME280;6971;50.028;9.258;2024-03-17T16:14:36;99807.31;;;11.29;74.83
13800;BME280;6971;50.028;9.258;2024-03-17T16:19:39;99816.25;;;11.44;82.16
13800;BME280;6971;50.028;9.258;2024-03-17T16:24:42;99813.16;;;11.35;83.76
13800;BME280;6971;50.028;9.258;2024-03-17T16:29:43;99807.88;;;11.35;83.83
13800;BME280;6971;50.028;9.258;2024-03-17T16:34:44;99805.69;;;11.44;79.52
13800;BME280;6971;50.028;9.258;2024-03-17T16:39:44;99797.28;;;11.53;79.07
13800;BME280;6971;50.028;9.258;2024-03-17T16:44:57;99799.94;;;11.53;85.25
13800;BME280;6971;50.028;9.258;2024-03-17T16:50:01;99797.84;;;11.42;83.85
13800;BME280;6971;50.028;9.258;2024-03-17T16:55:05;99791.13;;;11.19;87.15
13800;BME280;6971;50.028;9.258;2024-03-17T17:00:07;99792.03;;;11.00;87.75
13800;BME280;6971;50.028;9.258;2024-03-17T17:05:13;99790.22;;;10.65;95.31
13800;BME280;6971;50.028;9.258;2024-03-17T17:10:14;99782.50;;;10.43;100.00
13800;BME280;6971;50.028;9.258;2024-03-17T17:15:18;99779.22;;;10.18;100.00
13800;BME280;6971;50.028;9.258;2024-03-17T17:20:18;99768.69;;;9.99;100.00
13800;BME280;6971;50.028;9.258;2024-03-17T17:25:19;99770.94;;;9.69;100.00
13800;BME280;6971;50.028;9.258;2024-03-17T17:30:22;99773.63;;;9.67;100.00
13800;BME280;6971;50.028;9.258;2024-03-17T17:35:24;99763.22;;;9.45;100.00
13800;BME280;6971;50.028;9.258;2024-03-17T17:40:24;99771.13;;;9.24;100.00
13800;BME280;6971;50.028;9.258;2024-03-17T17:45:25;99764.47;;;8.94;100.00
13800;BME280;6971;50.028;9.258;2024-03-17T17:50:26;99766.34;;;8.70;100.00
13800;BME280;6971;50.028;9.258;2024-03-17T17:55:28;99759.41;;;8.45;100.00
13800;BME280;6971;50.028;9.258;2024-03-17T18:00:28;99759.47;;;8.21;100.00
13800;BME280;6971;50.028;9.258;2024-03-17T18:05:29;99756.81;;;7.99;100.00
13800;BME280;6971;50.028;9.258;2024-03-17T18:10:30;99760.34;;;7.74;100.00
13800;BME280;6971;50.028;9.258;2024-03-17T18:15:30;99759.31;;;7.54;100.00
13800;BME280;6971;50.028;9.258;2024-03-17T18:20:34;99765.44;;;7.29;100.00
13800;BME280;6971;50.028;9.258;2024-03-17T18:25:34;99752.38;;;7.02;100.00
13800;BME280;6971;50.028;9.258;2024-03-17T18:30:35;99752.06;;;6.86;100.00
13800;BME280;6971;50.028;9.258;2024-03-17T18:35:36;99757.88;;;6.67;100.00
13800;BME280;6971;50.028;9.258;2024-03-17T18:40:36;99757.13;;;6.63;100.00
13800;BME280;6971;50.028;9.258;2024-03-17T18:45:37;99751.97;;;6.60;100.00
13800;BME280;6971;50.028;9.258;2024-03-17T18:50:37;99766.38;;;6.47;100.00
13800;BME280;6971;50.028;9.258;2024-03-17T18:55:37;99770.84;;;6.43;100.00
13800;BME280;6971;50.028;9.258;2024-03-17T19:00:38;99774.59;;;6.34;100.00
13800;BME280;6971;50.028;9.258;2024-03-17T19:05:39;99772.94;;;6.32;100.00
13800;BME280;6971;50.028;9.258;2024-03-17T19:10:52;99772.22;;;6.26;100.00
13800;BME280;6971;50.028;9.258;2024-03-17T19:21:13;99783.75;;;6.21;100.00
13800;BME280;6971;50.028;9.258;2024-03-17T19:26:17;99776.75;;;6.21;100.00
13800;BME280;6971;50.028;9.258;2024-03-17T19:31:21;99775.16;;;6.16;100.00
13800;BME280;6971;50.028;9.258;2024-03-17T19:36:23;99783.97;;;6.13;100.00
13800;BME280;6971;50.028;9.258;2024-03-17T19:41:24;99765.53;;;6.18;100.00
13800;BME280;6971;50.028;9.258;2024-03-17T19:46:24;99772.66;;;6.12;100.00
13800;BME280;6971;50.028;9.258;2024-03-17T19:51:24;99760.38;;;6.14;100.00
13800;BME280;6971;50.028;9.258;2024-03-17T19:56:25;99755.22;;;6.11;100.00
13800;BME280;6971;50.028;9.258;2024-03-17T20:01:25;99764.06;;;6.07;100.00
13800;BME280;6971;50.028;9.258;2024-03-17T20:06:26;99745.66;;;6.10;100.00
13800;BME280;6971;50.028;9.258;2024-03-17T20:11:26;99732.69;;;6.07;100.00
13800;BME280;6971;50.028;9.258;2024-03-17T20:16:27;99726.50;;;6.10;100.00
13800;BME280;6971;50.028;9.258;2024-03-17T20:21:27;99724.66;;;6.13;100.00
13800;BME280;6971;50.028;9.258;2024-03-17T20:26:28;99728.31;;;6.08;100.00
13800;BME280;6971;50.028;9.258;2024-03-17T20:31:32;99707.94;;;6.18;100.00
13800;BME280;6971;50.028;9.258;2024-03-17T20:36:33;99713.19;;;6.18;100.00
13800;BME280;6971;50.028;9.258;2024-03-17T20:41:33;99715.75;;;6.19;100.00
13800;BME280;6971;50.028;9.258;2024-03-17T20:46:34;99716.03;;;6.10;100.00
13800;BME280;6971;50.028;9.258;2024-03-17T20:51:34;99715.94;;;6.13;100.00
13800;BME280;6971;50.028;9.258;2024-03-17T20:56:34;99714.44;;;6.06;100.00
13800;BME280;6971;50.028;9.258;2024-03-17T21:01:35;99728.31;;;6.08;100.00
13800;BME280;6971;50.028;9.258;2024-03-17T21:06:36;99722.19;;;6.07;100.00
13800;BME280;6971;50.028;9.258;2024-03-17T21:11:37;99733.63;;;6.05;100.00
13800;BME280;6971;50.028;9.258;2024-03-17T21:16:41;99715.88;;;6.14;100.00
13800;BME280;6971;50.028;9.258;2024-03-17T21:21:42;99703.75;;;6.12;100.00
13800;BME280;6971;50.028;9.258;2024-03-17T21:26:43;99707.25;;;6.12;100.00
13800;BME280;6971;50.028;9.258;2024-03-17T21:31:43;99707.84;;;6.21;100.00
13800;BME280;6971;50.028;9.258;2024-03-17T21:36:43;99692.03;;;6.24;100.00
13800;BME280;6971;50.028;9.258;2024-03-17T21:41:44;99686.81;;;6.24;100.00
13800;BME280;6971;50.028;9.258;2024-03-17T21:46:44;99673.03;;;6.19;100.00
13800;BME280;6971;50.028;9.258;2024-03-17T21:51:45;99659.28;;;6.12;100.00
13800;BME280;6971;50.028;9.258;2024-03-17T21:56:45;99655.34;;;5.97;100.00
13800;BME280;6971;50.028;9.258;2024-03-17T22:01:45;99648.44;;;5.94;100.00
13800;BME280;6971;50.028;9.258;2024-03-17T22:06:46;99654.47;;;5.68;100.00
13800;BME280;6971;50.028;9.258;2024-03-17T22:11:46;99646.91;;;5.58;100.00
13800;BME280;6971;50.028;9.258;2024-03-17T22:16:46;99649.66;;;5.54;100.00
13800;BME280;6971;50.028;9.258;2024-03-17T22:21:47;99652.56;;;5.44;100.00
13800;BME280;6971;50.028;9.258;2024-03-17T22:26:48;99649.56;;;5.27;100.00
13800;BME280;6971;50.028;9.258;2024-03-17T22:31:48;99641.22;;;5.14;100.00
13800;BME280;6971;50.028;9.258;2024-03-17T22:36:49;99630.75;;;5.14;100.00
13800;BME280;6971;50.028;9.258;2024-03-17T22:41:49;99628.38;;;5.06;100.00
13800;BME280;6971;50.028;9.258;2024-03-17T22:46:49;99625.03;;;5.01;100.00
13800;BME280;6971;50.028;9.258;2024-03-17T22:51:50;99625.16;;;4.96;100.00
13800;BME280;6971;50.028;9.258;2024-03-17T22:56:52;99631.50;;;4.87;100.00
13800;BME280;6971;50.028;9.258;2024-03-17T23:01:52;99631.91;;;4.72;100.00
13800;BME280;6971;50.028;9.258;2024-03-17T23:06:53;99633.53;;;4.76;100.00
13800;BME280;6971;50.028;9.258;2024-03-17T23:11:53;99621.31;;;4.78;100.00
13800;BME280;6971;50.028;9.258;2024-03-17T23:16:54;99621.31;;;4.78;100.00
13800;BME280;6971;50.028;9.258;2024-03-17T23:21:54;99621.28;;;4.79;100.00
13800;BME280;6971;50.028;9.258;2024-03-17T23:26:55;99619.38;;;4.85;100.00
13800;BME280;6971;50.028;9.258;2024-03-17T23:31:55;99620.16;;;4.88;100.00
13800;BME280;6971;50.028;9.258;2024-03-17T23:36:56;99610.34;;;4.96;100.00
13800;BME280;6971;50.028;9.258;2024-03-17T23:41:56;99599.84;;;4.98;100.00
13800;BME280;6971;50.028;9.258;2024-03-17T23:46:56;99603.19;;;5.03;100.00
13800;BME280;6971;50.028;9.258;2024-03-17T23:51:57;99595.22;;;5.08;100.00
13800;BME280;6971;50.028;9.258;2024-03-17T23:56:58;99592.56;;;5.09;100.00
